createdAt,value
2018-05-17T00:00:24.659Z,16.50
2018-05-17T00:02:53.547Z,15.88
2018-05-17T00:05:22.435Z,16.08
2018-05-17T00:07:51.343Z,16.90
2018-05-17T00:10:20.223Z,16.33
2018-05-17T00:12:49.199Z,17.95
2018-05-17T00:15:18.100Z,19.35
2018-05-17T00:17:46.974Z,18.75
2018-05-17T00:20:15.880Z,17.75
2018-05-17T00:22:44.877Z,18.77
2018-05-17T00:25:13.758Z,21.60
2018-05-17T00:27:42.707Z,23.00
2018-05-17T00:30:12.584Z,20.80
2018-05-17T00:32:42.231Z,23.10
2018-05-17T00:35:11.124Z,27.45
2018-05-17T00:37:40.054Z,25.85
2018-05-17T00:40:08.904Z,23.35
2018-05-17T00:42:37.811Z,27.27
2018-05-17T00:45:06.802Z,18.70
2018-05-17T00:47:35.792Z,20.87
2018-05-17T00:50:04.691Z,20.62
2018-05-17T00:52:33.686Z,17.48
2018-05-17T00:55:02.662Z,16.05
2018-05-17T00:57:31.639Z,15.88
2018-05-17T01:00:00.642Z,14.82
2018-05-17T01:02:29.529Z,16.00
2018-05-17T01:04:58.415Z,13.57
2018-05-17T01:07:27.304Z,15.95
2018-05-17T01:09:56.196Z,14.18
2018-05-17T01:12:25.151Z,15.70
2018-05-17T01:14:54.071Z,15.90
2018-05-17T01:17:22.955Z,15.32
2018-05-17T01:19:51.868Z,15.70
2018-05-17T01:22:20.848Z,14.75
2018-05-17T01:24:49.770Z,15.05
2018-05-17T01:27:18.639Z,14.10
2018-05-17T01:29:47.530Z,14.60
2018-05-17T01:32:16.490Z,13.73
2018-05-17T01:34:45.384Z,14.82
2018-05-17T01:37:26.246Z,14.65
2018-05-17T01:39:55.117Z,15.70
2018-05-17T01:42:24.031Z,12.80
2018-05-17T01:44:53.023Z,15.35
2018-05-17T01:47:21.843Z,15.63
2018-05-17T01:49:50.845Z,18.42
2018-05-17T01:52:19.802Z,18.65
2018-05-17T01:54:48.705Z,18.35
2018-05-17T01:57:17.589Z,16.37
2018-05-17T01:59:46.562Z,20.42
2018-05-17T02:02:15.568Z,19.23
2018-05-17T02:04:44.450Z,20.42
2018-05-17T02:07:13.448Z,19.45
2018-05-17T02:09:42.422Z,22.00
2018-05-17T02:12:11.326Z,23.98
2018-05-17T02:14:40.243Z,23.02
2018-05-17T02:17:09.107Z,24.77
2018-05-17T02:19:38.093Z,23.45
2018-05-17T02:22:06.977Z,26.98
2018-05-17T02:24:35.959Z,24.02
2018-05-17T02:27:04.851Z,25.62
2018-05-17T02:29:33.740Z,25.90
2018-05-17T02:32:02.730Z,22.37
2018-05-17T02:34:31.621Z,24.02
2018-05-17T02:37:00.515Z,23.98
2018-05-17T02:39:29.423Z,26.35
2018-05-17T02:41:58.390Z,24.58
2018-05-17T02:44:27.300Z,22.62
2018-05-17T02:46:56.191Z,23.53
2018-05-17T02:49:25.083Z,21.48
2018-05-17T02:51:54.089Z,23.65
2018-05-17T02:54:22.989Z,21.87
2018-05-17T02:56:51.924Z,22.77
2018-05-17T02:59:20.814Z,25.58
2018-05-17T03:01:49.727Z,22.43
2018-05-17T03:04:18.699Z,24.00
2018-05-17T03:06:47.583Z,22.08
2018-05-17T03:09:16.484Z,23.92
2018-05-17T03:11:45.367Z,21.48
2018-05-17T03:14:14.248Z,22.90
2018-05-17T03:16:43.245Z,23.97
2018-05-17T03:19:12.150Z,24.50
2018-05-17T03:21:41.055Z,24.52
2018-05-17T03:24:09.947Z,23.45
2018-05-17T03:26:38.822Z,25.25
2018-05-17T03:29:07.740Z,24.02
2018-05-17T03:31:36.621Z,23.83
2018-05-17T03:34:05.541Z,21.85
2018-05-17T03:36:35.282Z,17.45
2018-05-17T03:39:04.178Z,20.30
2018-05-17T03:41:33.092Z,18.52
2018-05-17T03:44:01.967Z,18.90
2018-05-17T03:46:30.982Z,21.20
2018-05-17T03:48:59.842Z,17.77
2018-05-17T03:51:28.726Z,18.25
2018-05-17T03:53:57.616Z,17.12
2018-05-17T03:56:26.519Z,18.02
2018-05-17T03:58:55.419Z,15.35
2018-05-17T04:01:37.799Z,16.50
2018-05-17T04:04:18.555Z,15.65
2018-05-17T04:06:47.459Z,17.75
2018-05-17T04:09:16.331Z,16.85
2018-05-17T04:11:45.230Z,15.10
2018-05-17T04:14:14.216Z,17.77
2018-05-17T04:16:43.219Z,12.02
2018-05-17T04:19:12.101Z,12.70
2018-05-17T04:21:40.993Z,12.65
2018-05-17T04:24:09.989Z,11.63
2018-05-17T04:26:38.975Z,16.90
2018-05-17T04:29:08.005Z,9.27
2018-05-17T04:31:36.898Z,12.17
2018-05-17T04:34:06.558Z,11.00
2018-05-17T04:36:35.455Z,11.60
2018-05-17T04:39:05.242Z,9.18
2018-05-17T04:41:34.896Z,10.95
2018-05-17T04:44:03.770Z,9.80
2018-05-17T04:46:32.717Z,10.37
2018-05-17T04:49:01.621Z,11.02
2018-05-17T04:51:31.345Z,7.93
2018-05-17T04:54:00.235Z,8.32
2018-05-17T04:56:29.109Z,7.53
2018-05-17T04:58:58.006Z,7.43
2018-05-17T05:01:26.889Z,5.93
2018-05-17T05:03:55.839Z,7.80
2018-05-17T05:06:24.717Z,6.47
2018-05-17T05:08:53.663Z,6.12
2018-05-17T05:11:22.569Z,8.32
2018-05-17T05:13:51.482Z,7.10
2018-05-17T05:16:20.371Z,5.90
2018-05-17T05:18:49.254Z,5.12
2018-05-17T05:21:18.115Z,5.30
2018-05-17T05:23:46.991Z,6.18
2018-05-17T05:26:15.872Z,5.87
2018-05-17T05:28:44.768Z,4.22
2018-05-17T05:31:13.639Z,3.50
2018-05-17T05:33:42.524Z,3.97
2018-05-17T05:36:12.280Z,3.92
2018-05-17T05:38:41.148Z,4.47
2018-05-17T05:41:10.042Z,2.92
2018-05-17T05:43:38.916Z,3.12
2018-05-17T05:46:07.787Z,3.90
2018-05-17T05:48:37.865Z,3.00
2018-05-17T05:51:06.831Z,2.50
2018-05-17T05:53:35.731Z,2.65
2018-05-17T05:56:04.704Z,2.50
2018-05-17T05:58:33.568Z,2.58
2018-05-17T06:01:03.343Z,2.30
2018-05-17T06:03:32.206Z,2.50
2018-05-17T06:06:01.096Z,3.20
2018-05-17T06:08:29.974Z,2.80
2018-05-17T06:10:58.870Z,2.70
2018-05-17T06:13:27.771Z,2.78
2018-05-17T06:15:56.763Z,4.43
2018-05-17T06:18:25.651Z,2.92
2018-05-17T06:20:54.618Z,3.35
2018-05-17T06:23:23.548Z,3.20
2018-05-17T06:25:52.410Z,3.30
2018-05-17T06:28:21.386Z,3.80
2018-05-17T06:30:50.379Z,5.17
2018-05-17T06:33:19.282Z,4.65
2018-05-17T06:35:48.187Z,3.22
2018-05-17T06:38:17.061Z,4.18
2018-05-17T06:40:45.972Z,4.47
2018-05-17T06:43:14.950Z,3.30
2018-05-17T06:45:43.824Z,3.43
2018-05-17T06:48:12.712Z,2.85
2018-05-17T06:50:41.615Z,3.10
2018-05-17T06:53:10.521Z,2.90
2018-05-17T06:55:39.479Z,3.60
2018-05-17T06:58:08.384Z,3.80
2018-05-17T07:00:37.564Z,3.60
2018-05-17T07:03:06.461Z,3.83
2018-05-17T07:05:35.333Z,3.37
2018-05-17T07:08:04.273Z,4.07
2018-05-17T07:10:33.444Z,3.93
2018-05-17T07:13:02.920Z,4.00
2018-05-17T07:15:31.915Z,4.50
2018-05-17T07:18:00.949Z,3.83
2018-05-17T07:20:29.791Z,4.77
2018-05-17T07:22:58.673Z,4.57
2018-05-17T07:25:27.554Z,4.67
2018-05-17T07:27:56.475Z,3.80
2018-05-17T07:30:25.458Z,5.70
2018-05-17T07:32:54.373Z,5.57
2018-05-17T07:35:23.266Z,4.60
2018-05-17T07:37:52.262Z,4.50
2018-05-17T07:40:21.176Z,4.50
2018-05-17T07:42:50.953Z,4.83
2018-05-17T07:45:19.859Z,4.33
2018-05-17T07:47:50.279Z,5.70
2018-05-17T07:50:19.192Z,5.17
2018-05-17T07:52:48.952Z,5.70
2018-05-17T07:55:17.821Z,4.70
2018-05-17T07:57:46.712Z,4.60
2018-05-17T08:00:15.591Z,5.97
2018-05-17T08:02:44.495Z,5.80
2018-05-17T08:05:13.416Z,6.53
2018-05-17T08:07:42.289Z,5.50
2018-05-17T08:10:11.184Z,5.37
2018-05-17T08:12:40.194Z,5.90
2018-05-17T08:15:09.089Z,5.23
2018-05-17T08:17:38.043Z,5.47
2018-05-17T08:20:06.943Z,7.63
2018-05-17T08:22:35.924Z,5.87
2018-05-17T08:25:05.174Z,5.07
2018-05-17T08:27:34.072Z,5.27
2018-05-17T08:30:03.725Z,4.97
2018-05-17T08:32:32.616Z,6.10
2018-05-17T08:35:01.643Z,5.03
2018-05-17T08:37:30.623Z,5.47
2018-05-17T08:39:59.588Z,5.20
2018-05-17T08:42:28.571Z,4.97
2018-05-17T08:44:57.456Z,5.57
2018-05-17T08:47:26.357Z,4.97
2018-05-17T08:49:55.251Z,4.13
2018-05-17T08:52:24.237Z,4.27
2018-05-17T08:54:53.120Z,3.70
2018-05-17T08:57:22.135Z,4.67
2018-05-17T08:59:51.174Z,5.33
2018-05-17T09:02:19.999Z,3.90
2018-05-17T09:04:48.904Z,4.67
2018-05-17T09:07:17.779Z,3.70
2018-05-17T09:09:46.695Z,4.30
2018-05-17T09:12:15.584Z,5.87
2018-05-17T09:14:44.477Z,5.37
2018-05-17T09:17:13.357Z,5.27
2018-05-17T09:19:42.274Z,4.40
2018-05-17T09:22:11.931Z,5.13
2018-05-17T09:24:40.822Z,5.47
2018-05-17T09:27:09.703Z,4.83
2018-05-17T09:29:38.710Z,5.10
2018-05-17T09:32:07.582Z,5.07
2018-05-17T09:34:36.481Z,4.70
2018-05-17T09:37:05.483Z,8.63
2018-05-17T09:39:34.351Z,4.30
2018-05-17T09:42:03.245Z,5.60
2018-05-17T09:44:32.127Z,5.53
2018-05-17T09:47:01.102Z,4.93
2018-05-17T09:49:30.743Z,5.00
2018-05-17T09:51:59.607Z,8.20
2018-05-17T09:54:28.627Z,4.03
2018-05-17T09:56:57.526Z,4.37
2018-05-17T09:59:26.483Z,4.47
2018-05-17T10:01:55.370Z,4.70
2018-05-17T10:04:24.260Z,5.50
2018-05-17T10:06:53.140Z,6.20
2018-05-17T10:09:22.047Z,5.73
2018-05-17T10:11:50.947Z,5.97
2018-05-17T10:14:19.940Z,5.60
2018-05-17T10:16:48.794Z,6.07
2018-05-17T10:19:17.733Z,7.23
2018-05-17T10:21:46.696Z,6.17
2018-05-17T10:24:15.495Z,7.93
2018-05-17T10:26:44.390Z,6.63
2018-05-17T10:29:13.289Z,6.33
2018-05-17T10:31:42.180Z,7.30
2018-05-17T10:34:13.841Z,6.90
2018-05-17T10:36:42.754Z,6.27
2018-05-17T10:39:12.514Z,5.83
2018-05-17T10:41:41.424Z,7.07
2018-05-17T10:44:10.314Z,6.83
2018-05-17T10:46:39.274Z,7.97
2018-05-17T10:49:08.208Z,6.80
2018-05-17T10:51:37.138Z,5.63
2018-05-17T10:54:06.043Z,6.20
2018-05-17T10:56:35.029Z,5.43
2018-05-17T10:59:04.019Z,5.70
2018-05-17T11:01:32.911Z,6.07
2018-05-17T11:04:01.839Z,5.60
2018-05-17T11:06:33.930Z,5.30
2018-05-17T11:09:03.570Z,5.40
2018-05-17T11:11:32.471Z,4.57
2018-05-17T11:14:01.431Z,5.70
2018-05-17T11:16:34.681Z,4.60
2018-05-17T11:19:03.572Z,4.77
2018-05-17T11:21:32.559Z,4.83
2018-05-17T11:24:01.416Z,4.73
2018-05-17T11:26:31.024Z,3.80
2018-05-17T11:28:59.915Z,3.73
2018-05-17T11:31:28.826Z,5.47
2018-05-17T11:33:57.700Z,4.67
2018-05-17T11:36:26.599Z,4.13
2018-05-17T11:38:55.575Z,4.27
2018-05-17T11:41:24.454Z,4.63
2018-05-17T11:43:53.404Z,3.93
2018-05-17T11:46:22.273Z,3.60
2018-05-17T11:48:51.199Z,3.60
2018-05-17T11:51:20.873Z,3.97
2018-05-17T11:53:49.744Z,3.50
2018-05-17T11:56:18.932Z,4.37
2018-05-17T11:58:47.811Z,4.13
2018-05-17T12:01:16.679Z,4.63
2018-05-17T12:03:45.623Z,3.60
2018-05-17T12:06:14.493Z,4.40
2018-05-17T12:08:43.419Z,4.10
2018-05-17T12:11:12.326Z,4.00
2018-05-17T12:13:41.965Z,4.23
2018-05-17T12:16:10.854Z,5.10
2018-05-17T12:18:39.841Z,5.07
2018-05-17T12:21:08.838Z,4.23
2018-05-17T12:23:37.727Z,4.93
2018-05-17T12:26:06.639Z,4.90
2018-05-17T12:28:35.619Z,5.20
2018-05-17T12:31:04.504Z,6.83
2018-05-17T12:33:33.426Z,8.80
2018-05-17T12:36:02.299Z,5.90
2018-05-17T12:38:31.253Z,5.53
2018-05-17T12:41:00.112Z,4.97
2018-05-17T12:43:29.764Z,5.43
2018-05-17T12:45:58.647Z,7.23
2018-05-17T12:48:27.531Z,4.20
2018-05-17T12:50:56.489Z,4.10
2018-05-17T12:53:25.288Z,4.50
2018-05-17T12:55:54.270Z,4.10
2018-05-17T12:58:23.889Z,6.63
2018-05-17T13:00:52.768Z,4.53
2018-05-17T13:03:21.668Z,4.90
2018-05-17T13:05:50.581Z,5.10
2018-05-17T13:08:19.475Z,5.70
2018-05-17T13:10:48.363Z,6.33
2018-05-17T13:13:17.277Z,5.37
2018-05-17T13:15:46.233Z,5.93
2018-05-17T13:18:15.094Z,6.13
2018-05-17T13:20:44.009Z,6.00
2018-05-17T13:23:12.935Z,6.07
2018-05-17T13:25:41.811Z,7.20
2018-05-17T13:28:10.688Z,7.17
2018-05-17T13:30:39.560Z,7.10
2018-05-17T13:33:08.448Z,7.50
2018-05-17T13:35:37.355Z,3.40
2018-05-17T13:38:06.237Z,2.00
2018-05-17T13:40:35.222Z,1.57
2018-05-17T13:43:04.105Z,2.70
2018-05-17T13:45:33.022Z,4.07
2018-05-17T13:48:01.908Z,2.53
2018-05-17T13:50:30.801Z,2.50
2018-05-17T13:52:59.718Z,4.17
2018-05-17T13:55:28.648Z,2.78
2018-05-17T13:57:58.320Z,4.50
2018-05-17T14:00:27.205Z,3.50
2018-05-17T14:02:56.157Z,3.90
2018-05-17T14:05:25.855Z,2.03
2018-05-17T14:07:54.791Z,2.92
2018-05-17T14:10:23.717Z,5.10
2018-05-17T14:12:52.737Z,3.25
2018-05-17T14:15:21.726Z,5.62
2018-05-17T14:17:50.534Z,3.62
2018-05-17T14:20:19.493Z,6.32
2018-05-17T14:22:48.366Z,4.95
2018-05-17T14:25:17.260Z,6.70
2018-05-17T14:27:46.197Z,5.00
2018-05-17T14:30:15.108Z,6.10
2018-05-17T14:32:44.767Z,5.15
2018-05-17T14:35:13.691Z,8.48
2018-05-17T14:37:42.583Z,5.80
2018-05-17T14:40:11.456Z,6.05
2018-05-17T14:42:40.351Z,6.50
2018-05-17T14:45:09.228Z,9.57
2018-05-17T14:47:38.176Z,8.73
2018-05-17T14:50:07.065Z,7.10
2018-05-17T14:52:35.960Z,5.75
2018-05-17T14:55:04.887Z,20.17
2018-05-17T14:57:33.833Z,22.23
2018-05-17T15:00:03.522Z,13.45
2018-05-17T15:02:32.572Z,9.00
2018-05-17T15:05:01.522Z,9.30
2018-05-17T15:07:30.432Z,6.87
2018-05-17T15:09:59.314Z,8.75
2018-05-17T15:12:28.254Z,9.55
2018-05-17T15:14:57.158Z,9.23
2018-05-17T15:17:26.117Z,8.33
2018-05-17T15:19:55.079Z,10.02
2018-05-17T15:22:23.979Z,10.70
2018-05-17T15:24:52.902Z,11.20
2018-05-17T15:27:21.893Z,9.35
2018-05-17T15:29:50.994Z,9.90
2018-05-17T15:32:19.657Z,12.57
2018-05-17T15:34:48.558Z,10.95
2018-05-17T15:37:17.481Z,11.65
2018-05-17T15:39:46.397Z,15.00
2018-05-17T15:42:15.300Z,14.87
2018-05-17T15:44:44.322Z,13.00
2018-05-17T15:47:13.192Z,10.80
2018-05-17T15:49:42.199Z,10.85
2018-05-17T15:52:11.156Z,11.30
2018-05-17T15:54:40.094Z,11.38
2018-05-17T15:57:09.069Z,11.52
2018-05-17T15:59:37.984Z,11.02
2018-05-17T16:02:07.673Z,13.13
2018-05-17T16:04:36.594Z,14.52
2018-05-17T16:07:05.528Z,9.10
2018-05-17T16:09:34.512Z,10.20
2018-05-17T16:12:03.431Z,10.47
2018-05-17T16:14:32.403Z,11.10
2018-05-17T16:17:02.104Z,9.90
2018-05-17T16:19:31.023Z,9.77
2018-05-17T16:22:00.012Z,9.53
2018-05-17T16:24:28.899Z,10.47
2018-05-17T16:26:57.779Z,9.67
2018-05-17T16:29:26.769Z,11.93
2018-05-17T16:31:55.667Z,10.07
2018-05-17T16:34:24.650Z,10.83
2018-05-17T16:36:53.561Z,12.13
2018-05-17T16:39:22.512Z,14.37
2018-05-17T16:41:51.390Z,13.97
2018-05-17T16:44:20.330Z,17.77
2018-05-17T16:46:50.023Z,16.90
2018-05-17T16:49:18.920Z,19.70
2018-05-17T16:51:47.809Z,24.00
2018-05-17T16:54:16.779Z,28.67
2018-05-17T16:56:45.668Z,21.27
2018-05-17T16:59:14.554Z,18.07
2018-05-17T17:01:43.469Z,17.30
2018-05-17T17:04:12.349Z,19.00
2018-05-17T17:06:41.271Z,19.93
2018-05-17T17:09:10.956Z,20.93
2018-05-17T17:11:39.842Z,25.33
2018-05-17T17:14:08.761Z,25.47
2018-05-17T17:16:38.453Z,28.93
2018-05-17T17:19:08.108Z,26.70
2018-05-17T17:21:37.169Z,29.00
2018-05-17T17:24:06.066Z,30.03
2018-05-17T17:26:35.816Z,30.33
2018-05-17T17:29:04.808Z,34.70
2018-05-17T17:31:33.789Z,30.70
2018-05-17T17:34:03.725Z,32.20
2018-05-17T17:36:32.659Z,31.63
2018-05-17T17:39:01.654Z,31.67
2018-05-17T17:41:30.593Z,31.90
2018-05-17T17:43:59.499Z,33.33
2018-05-17T17:46:28.399Z,34.57
2018-05-17T17:48:58.106Z,35.07
2018-05-17T17:51:27.041Z,34.77
2018-05-17T17:53:55.987Z,34.70
2018-05-17T17:56:25.041Z,34.10
2018-05-17T17:58:54.000Z,33.87
2018-05-17T18:01:22.943Z,35.17
2018-05-17T18:03:52.178Z,34.40
2018-05-17T18:06:21.138Z,40.00
2018-05-17T18:08:50.243Z,37.17
2018-05-17T18:11:19.949Z,33.83
2018-05-17T18:13:49.102Z,36.00
2018-05-17T18:16:18.014Z,35.27
2018-05-17T18:18:46.955Z,36.73
2018-05-17T18:21:15.870Z,36.47
2018-05-17T18:23:44.777Z,34.97
2018-05-17T18:26:13.696Z,36.97
2018-05-17T18:28:42.614Z,37.47
2018-05-17T18:31:11.538Z,34.90
2018-05-17T18:33:40.460Z,38.20
2018-05-17T18:36:09.440Z,37.67
2018-05-17T18:38:38.348Z,37.17
2018-05-17T18:41:07.323Z,37.17
2018-05-17T18:43:36.429Z,40.17
2018-05-17T18:46:05.347Z,37.93
2018-05-17T18:48:34.261Z,40.27
2018-05-17T18:51:03.348Z,43.05
2018-05-17T18:53:32.211Z,42.40
2018-05-17T18:56:01.982Z,41.55
2018-05-17T18:58:30.946Z,35.95
2018-05-17T19:01:00.095Z,39.93
2018-05-17T19:03:29.522Z,40.33
2018-05-17T19:05:58.851Z,43.67
2018-05-17T19:08:28.541Z,42.90
2018-05-17T19:10:57.461Z,43.92
2018-05-17T19:13:26.411Z,47.50
2018-05-17T19:15:55.310Z,38.83
2018-05-17T19:18:25.159Z,44.00
2018-05-17T19:20:54.118Z,47.75
2018-05-17T19:23:23.041Z,38.63
2018-05-17T19:28:25.629Z,43.70
2018-05-17T19:30:54.594Z,41.50
2018-05-17T19:33:23.517Z,43.30
2018-05-17T19:35:52.423Z,39.88
2018-05-17T19:38:22.115Z,45.30
2018-05-17T19:40:51.847Z,41.70
2018-05-17T19:43:20.773Z,48.92
2018-05-17T19:45:49.696Z,41.80
2018-05-17T19:48:18.716Z,45.92
2018-05-17T19:50:47.648Z,45.05
2018-05-17T19:53:16.857Z,42.45
2018-05-17T19:55:45.879Z,47.13
2018-05-17T19:58:14.831Z,48.17
2018-05-17T20:00:43.851Z,52.07
2018-05-17T20:03:12.749Z,47.03
2018-05-17T20:05:41.963Z,45.88
2018-05-17T20:08:11.786Z,47.35
2018-05-17T20:10:42.346Z,47.95
2018-05-17T20:13:11.350Z,49.63
2018-05-17T20:15:40.359Z,48.60
2018-05-17T20:18:09.430Z,50.78
2018-05-17T20:20:38.363Z,48.55
2018-05-17T20:23:08.143Z,45.72
2018-05-17T20:25:37.071Z,57.53
2018-05-17T20:28:06.748Z,47.45
2018-05-17T20:30:35.665Z,48.33
2018-05-17T20:33:05.330Z,46.20
2018-05-17T20:35:34.276Z,46.72
2018-05-17T20:38:03.238Z,52.05
2018-05-17T20:40:32.325Z,45.90
2018-05-17T20:43:01.400Z,45.12
2018-05-17T20:45:30.394Z,52.75
2018-05-17T20:47:59.303Z,54.00
2018-05-17T20:50:28.368Z,48.78
2018-05-17T20:52:57.288Z,48.97
2018-05-17T20:55:26.976Z,51.35
2018-05-17T20:57:55.891Z,48.15
2018-05-17T21:00:25.628Z,51.25
2018-05-17T21:02:54.560Z,48.60
2018-05-17T21:05:23.698Z,53.10
2018-05-17T21:07:53.468Z,51.35
2018-05-17T21:10:22.402Z,50.42
2018-05-17T21:12:52.106Z,48.03
2018-05-17T21:15:21.765Z,51.75
2018-05-17T21:17:50.665Z,53.35
2018-05-17T21:20:19.587Z,50.95
2018-05-17T21:22:49.349Z,55.55
2018-05-17T21:25:18.279Z,54.53
2018-05-17T21:27:48.044Z,57.47
2018-05-17T21:30:16.963Z,55.35
2018-05-17T21:32:45.890Z,52.62
2018-05-17T21:35:15.538Z,58.75
2018-05-17T21:37:44.428Z,53.10
2018-05-17T21:40:13.482Z,49.45
2018-05-17T21:42:42.513Z,57.78
2018-05-17T21:45:11.503Z,65.15
2018-05-17T21:47:40.406Z,55.47
2018-05-17T21:50:09.376Z,54.20
2018-05-17T21:52:38.295Z,58.72
2018-05-17T21:55:07.261Z,55.50
2018-05-17T21:57:36.158Z,54.30
2018-05-17T22:00:05.113Z,60.17
2018-05-17T22:02:34.122Z,56.07
2018-05-17T22:05:03.824Z,52.25
2018-05-17T22:07:32.844Z,58.25
2018-05-17T22:10:01.732Z,54.00
2018-05-17T22:12:30.847Z,58.55
2018-05-17T22:14:59.746Z,50.55
2018-05-17T22:17:29.414Z,55.37
2018-05-17T22:19:58.408Z,57.13
2018-05-17T22:22:27.316Z,59.40
2018-05-17T22:24:56.243Z,53.05
2018-05-17T22:27:25.897Z,55.08
2018-05-17T22:29:54.791Z,52.90
2018-05-17T22:32:23.805Z,55.97
2018-05-17T22:34:52.708Z,53.05
2018-05-17T22:37:22.388Z,49.63
2018-05-17T22:39:51.278Z,53.33
2018-05-17T22:42:20.160Z,58.40
2018-05-17T22:44:49.088Z,55.08
2018-05-17T22:47:18.839Z,46.40
2018-05-17T22:49:47.771Z,60.75
2018-05-17T22:52:17.545Z,52.80
2018-05-17T22:54:46.532Z,53.83
2018-05-17T22:57:15.528Z,63.70
2018-05-17T22:59:44.444Z,55.12
2018-05-17T23:02:13.339Z,62.10
2018-05-17T23:04:43.099Z,58.60
2018-05-17T23:07:12.090Z,60.80
2018-05-17T23:09:40.996Z,51.08
2018-05-17T23:12:09.906Z,66.62
2018-05-17T23:14:38.808Z,60.40
2018-05-17T23:17:07.754Z,57.67
2018-05-17T23:19:36.647Z,60.83
2018-05-17T23:22:05.577Z,55.95
2018-05-17T23:24:35.212Z,58.08
2018-05-17T23:27:04.143Z,58.75
2018-05-17T23:29:33.050Z,58.45
2018-05-17T23:32:01.954Z,59.07
2018-05-17T23:34:31.612Z,61.25
2018-05-17T23:37:00.503Z,53.67
2018-05-17T23:39:29.496Z,62.08
2018-05-17T23:41:58.390Z,56.22
2018-05-17T23:44:27.309Z,51.17
2018-05-17T23:46:56.263Z,53.20
2018-05-17T23:49:25.219Z,53.78
2018-05-17T23:51:54.150Z,64.00
2018-05-17T23:54:23.128Z,56.85
2018-05-17T23:56:52.026Z,62.45
2018-05-17T23:59:20.917Z,62.62
